sensor_id;sensor_type;location;lat;lon;timestamp;P1;durP1;ratioP1;P2;durP2;ratioP2
10335;SDS011;5213;53.548;9.930;2022-08-01T00:00:13;12.90;;;11.65;;
10335;SDS011;5213;53.548;9.930;2022-08-01T00:02:39;11.90;;;10.80;;
10335;SDS011;5213;53.548;9.930;2022-08-01T00:05:06;11.93;;;10.82;;
10335;SDS011;5213;53.548;9.930;2022-08-01T00:07:33;11.48;;;10.30;;
10335;SDS011;5213;53.548;9.930;2022-08-01T00:09:59;11.30;;;10.30;;
10335;SDS011;5213;53.548;9.930;2022-08-01T00:12:25;10.23;;;9.32;;
10335;SDS011;5213;53.548;9.930;2022-08-01T00:14:54;11.13;;;10.13;;
10335;SDS011;5213;53.548;9.930;2022-08-01T00:17:20;11.15;;;10.15;;
10335;SDS011;5213;53.548;9.930;2022-08-01T00:19:46;11.32;;;10.32;;
10335;SDS011;5213;53.548;9.930;2022-08-01T00:22:12;10.68;;;9.57;;
10335;SDS011;5213;53.548;9.930;2022-08-01T00:24:38;10.80;;;9.82;;
10335;SDS011;5213;53.548;9.930;2022-08-01T00:27:04;11.52;;;10.45;;
10335;SDS011;5213;53.548;9.930;2022-08-01T00:29:30;12.70;;;11.60;;
10335;SDS011;5213;53.548;9.930;2022-08-01T00:31:56;13.10;;;11.90;;
10335;SDS011;5213;53.548;9.930;2022-08-01T00:34:22;12.02;;;10.93;;
10335;SDS011;5213;53.548;9.930;2022-08-01T00:36:48;13.73;;;12.43;;
10335;SDS011;5213;53.548;9.930;2022-08-01T00:39:14;14.32;;;12.80;;
10335;SDS011;5213;53.548;9.930;2022-08-01T00:41:40;13.27;;;11.95;;
10335;SDS011;5213;53.548;9.930;2022-08-01T00:44:06;13.30;;;12.00;;
10335;SDS011;5213;53.548;9.930;2022-08-01T00:46:33;12.82;;;11.63;;
10335;SDS011;5213;53.548;9.930;2022-08-01T00:48:59;12.63;;;11.32;;
10335;SDS011;5213;53.548;9.930;2022-08-01T00:51:26;12.13;;;10.98;;
10335;SDS011;5213;53.548;9.930;2022-08-01T00:53:52;12.43;;;10.90;;
10335;SDS011;5213;53.548;9.930;2022-08-01T00:56:19;12.02;;;10.85;;
10335;SDS011;5213;53.548;9.930;2022-08-01T00:58:45;12.63;;;11.43;;
10335;SDS011;5213;53.548;9.930;2022-08-01T01:01:11;12.48;;;11.15;;
10335;SDS011;5213;53.548;9.930;2022-08-01T01:03:37;11.98;;;10.70;;
10335;SDS011;5213;53.548;9.930;2022-08-01T01:11:47;11.88;;;10.77;;
10335;SDS011;5213;53.548;9.930;2022-08-01T01:14:31;11.52;;;10.30;;
10335;SDS011;5213;53.548;9.930;2022-08-01T01:16:59;11.40;;;10.20;;
10335;SDS011;5213;53.548;9.930;2022-08-01T01:19:28;11.27;;;10.07;;
10335;SDS011;5213;53.548;9.930;2022-08-01T01:22:06;11.15;;;9.73;;
10335;SDS011;5213;53.548;9.930;2022-08-01T01:24:40;11.30;;;10.10;;
10335;SDS011;5213;53.548;9.930;2022-08-01T01:27:18;10.15;;;9.15;;
10335;SDS011;5213;53.548;9.930;2022-08-01T01:29:50;10.90;;;9.80;;
10335;SDS011;5213;53.548;9.930;2022-08-01T01:34:53;11.30;;;10.30;;
10335;SDS011;5213;53.548;9.930;2022-08-01T01:37:21;13.02;;;10.27;;
10335;SDS011;5213;53.548;9.930;2022-08-01T01:39:48;11.85;;;10.75;;
10335;SDS011;5213;53.548;9.930;2022-08-01T01:42:15;13.27;;;10.70;;
10335;SDS011;5213;53.548;9.930;2022-08-01T01:44:42;11.35;;;10.25;;
10335;SDS011;5213;53.548;9.930;2022-08-01T01:47:09;12.77;;;11.48;;
10335;SDS011;5213;53.548;9.930;2022-08-01T01:49:35;13.52;;;12.13;;
10335;SDS011;5213;53.548;9.930;2022-08-01T01:52:02;13.75;;;11.90;;
10335;SDS011;5213;53.548;9.930;2022-08-01T01:54:36;14.82;;;11.93;;
10335;SDS011;5213;53.548;9.930;2022-08-01T01:57:03;13.98;;;12.10;;
10335;SDS011;5213;53.548;9.930;2022-08-01T01:59:30;13.45;;;11.65;;
10335;SDS011;5213;53.548;9.930;2022-08-01T02:01:58;13.20;;;11.88;;
10335;SDS011;5213;53.548;9.930;2022-08-01T02:04:25;13.95;;;11.45;;
10335;SDS011;5213;53.548;9.930;2022-08-01T02:06:52;13.07;;;11.18;;
10335;SDS011;5213;53.548;9.930;2022-08-01T02:09:19;14.82;;;11.85;;
10335;SDS011;5213;53.548;9.930;2022-08-01T02:11:46;12.63;;;11.32;;
10335;SDS011;5213;53.548;9.930;2022-08-01T02:14:13;11.45;;;10.32;;
10335;SDS011;5213;53.548;9.930;2022-08-01T02:16:40;11.45;;;10.25;;
10335;SDS011;5213;53.548;9.930;2022-08-01T02:19:07;11.18;;;10.07;;
10335;SDS011;5213;53.548;9.930;2022-08-01T02:21:35;13.13;;;10.80;;
10335;SDS011;5213;53.548;9.930;2022-08-01T02:24:06;10.90;;;9.85;;
10335;SDS011;5213;53.548;9.930;2022-08-01T02:26:33;10.70;;;9.70;;
10335;SDS011;5213;53.548;9.930;2022-08-01T02:29:01;10.32;;;9.35;;
10335;SDS011;5213;53.548;9.930;2022-08-01T02:31:28;11.57;;;9.70;;
10335;SDS011;5213;53.548;9.930;2022-08-01T02:33:57;11.02;;;9.93;;
10335;SDS011;5213;53.548;9.930;2022-08-01T02:36:27;11.77;;;10.18;;
10335;SDS011;5213;53.548;9.930;2022-08-01T02:38:54;10.85;;;9.95;;
10335;SDS011;5213;53.548;9.930;2022-08-01T02:41:21;13.98;;;9.82;;
10335;SDS011;5213;53.548;9.930;2022-08-01T02:43:50;12.57;;;10.55;;
10335;SDS011;5213;53.548;9.930;2022-08-01T02:46:31;11.23;;;10.23;;
10335;SDS011;5213;53.548;9.930;2022-08-01T02:49:00;12.05;;;10.85;;
10335;SDS011;5213;53.548;9.930;2022-08-01T02:51:26;11.98;;;10.88;;
10335;SDS011;5213;53.548;9.930;2022-08-01T02:53:53;12.02;;;10.82;;
10335;SDS011;5213;53.548;9.930;2022-08-01T02:56:21;11.65;;;10.55;;
10335;SDS011;5213;53.548;9.930;2022-08-01T02:58:47;11.73;;;10.25;;
10335;SDS011;5213;53.548;9.930;2022-08-01T03:01:14;11.95;;;10.60;;
10335;SDS011;5213;53.548;9.930;2022-08-01T03:03:41;11.77;;;10.68;;
10335;SDS011;5213;53.548;9.930;2022-08-01T03:06:07;10.27;;;9.35;;
10335;SDS011;5213;53.548;9.930;2022-08-01T03:08:34;10.77;;;9.75;;
10335;SDS011;5213;53.548;9.930;2022-08-01T03:11:00;10.57;;;9.48;;
10335;SDS011;5213;53.548;9.930;2022-08-01T03:13:28;12.43;;;9.90;;
10335;SDS011;5213;53.548;9.930;2022-08-01T03:15:55;10.10;;;9.18;;
10335;SDS011;5213;53.548;9.930;2022-08-01T03:18:21;11.80;;;10.60;;
10335;SDS011;5213;53.548;9.930;2022-08-01T03:20:50;11.40;;;10.30;;
10335;SDS011;5213;53.548;9.930;2022-08-01T03:23:18;11.70;;;10.45;;
10335;SDS011;5213;53.548;9.930;2022-08-01T03:25:44;11.13;;;10.05;;
10335;SDS011;5213;53.548;9.930;2022-08-01T03:28:12;11.52;;;9.73;;
10335;SDS011;5213;53.548;9.930;2022-08-01T03:30:38;10.50;;;9.48;;
10335;SDS011;5213;53.548;9.930;2022-08-01T03:33:05;9.93;;;9.02;;
10335;SDS011;5213;53.548;9.930;2022-08-01T03:35:37;9.82;;;8.68;;
10335;SDS011;5213;53.548;9.930;2022-08-01T03:38:05;10.55;;;9.45;;
10335;SDS011;5213;53.548;9.930;2022-08-01T03:43:02;9.35;;;8.43;;
10335;SDS011;5213;53.548;9.930;2022-08-01T03:45:30;8.82;;;7.93;;
10335;SDS011;5213;53.548;9.930;2022-08-01T03:48:02;8.80;;;8.00;;
10335;SDS011;5213;53.548;9.930;2022-08-01T03:50:28;9.73;;;8.05;;
10335;SDS011;5213;53.548;9.930;2022-08-01T03:52:58;9.05;;;7.93;;
10335;SDS011;5213;53.548;9.930;2022-08-01T03:55:25;7.70;;;6.95;;
10335;SDS011;5213;53.548;9.930;2022-08-01T03:57:52;7.53;;;6.82;;
10335;SDS011;5213;53.548;9.930;2022-08-01T04:00:18;8.00;;;7.20;;
10335;SDS011;5213;53.548;9.930;2022-08-01T04:02:48;6.75;;;6.15;;
10335;SDS011;5213;53.548;9.930;2022-08-01T04:05:17;9.07;;;5.85;;
10335;SDS011;5213;53.548;9.930;2022-08-01T04:07:47;6.68;;;6.07;;
10335;SDS011;5213;53.548;9.930;2022-08-01T04:10:15;6.45;;;5.78;;
10335;SDS011;5213;53.548;9.930;2022-08-01T04:12:41;5.78;;;5.22;;
10335;SDS011;5213;53.548;9.930;2022-08-01T04:15:07;6.47;;;5.05;;
10335;SDS011;5213;53.548;9.930;2022-08-01T04:17:34;5.22;;;4.82;;
10335;SDS011;5213;53.548;9.930;2022-08-01T04:20:00;5.93;;;5.30;;
10335;SDS011;5213;53.548;9.930;2022-08-01T04:22:26;7.10;;;5.18;;
10335;SDS011;5213;53.548;9.930;2022-08-01T04:24:53;5.78;;;5.00;;
10335;SDS011;5213;53.548;9.930;2022-08-01T04:27:22;7.72;;;5.38;;
10335;SDS011;5213;53.548;9.930;2022-08-01T04:29:52;4.85;;;4.45;;
10335;SDS011;5213;53.548;9.930;2022-08-01T04:32:21;6.13;;;4.63;;
10335;SDS011;5213;53.548;9.930;2022-08-01T04:34:47;4.80;;;4.40;;
10335;SDS011;5213;53.548;9.930;2022-08-01T04:37:15;5.18;;;4.68;;
10335;SDS011;5213;53.548;9.930;2022-08-01T04:39:41;5.75;;;4.00;;
10335;SDS011;5213;53.548;9.930;2022-08-01T04:42:07;5.47;;;4.38;;
10335;SDS011;5213;53.548;9.930;2022-08-01T04:44:34;7.55;;;4.25;;
10335;SDS011;5213;53.548;9.930;2022-08-01T04:47:00;4.20;;;3.80;;
10335;SDS011;5213;53.548;9.930;2022-08-01T04:49:29;3.97;;;3.45;;
10335;SDS011;5213;53.548;9.930;2022-08-01T04:51:55;3.63;;;3.42;;
10335;SDS011;5213;53.548;9.930;2022-08-01T04:54:28;3.50;;;3.30;;
10335;SDS011;5213;53.548;9.930;2022-08-01T04:56:55;4.28;;;3.88;;
10335;SDS011;5213;53.548;9.930;2022-08-01T04:59:28;3.78;;;3.50;;
10335;SDS011;5213;53.548;9.930;2022-08-01T05:04:35;3.42;;;3.15;;
10335;SDS011;5213;53.548;9.930;2022-08-01T05:07:02;3.22;;;2.72;;
10335;SDS011;5213;53.548;9.930;2022-08-01T05:09:29;3.35;;;3.13;;
10335;SDS011;5213;53.548;9.930;2022-08-01T05:11:55;3.78;;;3.28;;
10335;SDS011;5213;53.548;9.930;2022-08-01T05:14:23;4.18;;;3.20;;
10335;SDS011;5213;53.548;9.930;2022-08-01T05:16:49;3.67;;;3.40;;
10335;SDS011;5213;53.548;9.930;2022-08-01T05:19:16;6.32;;;4.00;;
10335;SDS011;5213;53.548;9.930;2022-08-01T05:21:42;4.10;;;3.85;;
10335;SDS011;5213;53.548;9.930;2022-08-01T05:24:08;4.60;;;4.30;;
10335;SDS011;5213;53.548;9.930;2022-08-01T05:26:34;5.75;;;5.28;;
10335;SDS011;5213;53.548;9.930;2022-08-01T05:29:00;5.93;;;5.43;;
10335;SDS011;5213;53.548;9.930;2022-08-01T05:31:26;6.13;;;5.55;;
10335;SDS011;5213;53.548;9.930;2022-08-01T05:33:53;6.20;;;5.80;;
10335;SDS011;5213;53.548;9.930;2022-08-01T05:36:19;7.18;;;6.13;;
10335;SDS011;5213;53.548;9.930;2022-08-01T05:38:45;6.30;;;5.90;;
10335;SDS011;5213;53.548;9.930;2022-08-01T05:41:11;6.45;;;5.95;;
10335;SDS011;5213;53.548;9.930;2022-08-01T05:43:37;6.88;;;6.38;;
10335;SDS011;5213;53.548;9.930;2022-08-01T05:46:03;7.00;;;6.47;;
10335;SDS011;5213;53.548;9.930;2022-08-01T05:48:29;7.55;;;7.05;;
10335;SDS011;5213;53.548;9.930;2022-08-01T05:50:55;7.43;;;6.72;;
10335;SDS011;5213;53.548;9.930;2022-08-01T05:53:22;7.40;;;6.70;;
10335;SDS011;5213;53.548;9.930;2022-08-01T05:55:48;6.07;;;5.47;;
10335;SDS011;5213;53.548;9.930;2022-08-01T05:58:14;5.65;;;5.18;;
10335;SDS011;5213;53.548;9.930;2022-08-01T06:00:40;4.45;;;4.05;;
10335;SDS011;5213;53.548;9.930;2022-08-01T06:03:07;4.43;;;4.03;;
10335;SDS011;5213;53.548;9.930;2022-08-01T06:05:33;4.65;;;4.20;;
10335;SDS011;5213;53.548;9.930;2022-08-01T06:07:59;6.68;;;4.30;;
10335;SDS011;5213;53.548;9.930;2022-08-01T06:10:25;5.15;;;4.60;;
10335;SDS011;5213;53.548;9.930;2022-08-01T06:12:51;7.18;;;4.70;;
10335;SDS011;5213;53.548;9.930;2022-08-01T06:15:17;4.80;;;4.30;;
10335;SDS011;5213;53.548;9.930;2022-08-01T06:17:43;6.13;;;4.65;;
10335;SDS011;5213;53.548;9.930;2022-08-01T06:20:09;5.63;;;5.10;;
10335;SDS011;5213;53.548;9.930;2022-08-01T06:22:35;7.93;;;5.40;;
10335;SDS011;5213;53.548;9.930;2022-08-01T06:25:02;6.35;;;5.82;;
10335;SDS011;5213;53.548;9.930;2022-08-01T06:27:28;6.50;;;5.80;;
10335;SDS011;5213;53.548;9.930;2022-08-01T06:29:54;7.40;;;5.85;;
10335;SDS011;5213;53.548;9.930;2022-08-01T06:32:21;6.72;;;5.95;;
10335;SDS011;5213;53.548;9.930;2022-08-01T06:34:48;6.28;;;5.65;;
10335;SDS011;5213;53.548;9.930;2022-08-01T06:37:14;6.50;;;4.35;;
10335;SDS011;5213;53.548;9.930;2022-08-01T06:39:40;4.90;;;4.50;;
10335;SDS011;5213;53.548;9.930;2022-08-01T06:42:07;7.35;;;4.80;;
10335;SDS011;5213;53.548;9.930;2022-08-01T06:44:34;7.10;;;4.47;;
10335;SDS011;5213;53.548;9.930;2022-08-01T06:47:00;6.88;;;4.85;;
10335;SDS011;5213;53.548;9.930;2022-08-01T06:49:26;6.00;;;4.63;;
10335;SDS011;5213;53.548;9.930;2022-08-01T06:51:52;7.05;;;4.43;;
10335;SDS011;5213;53.548;9.930;2022-08-01T06:54:18;7.47;;;4.68;;
10335;SDS011;5213;53.548;9.930;2022-08-01T06:56:44;6.22;;;4.65;;
10335;SDS011;5213;53.548;9.930;2022-08-01T06:59:10;8.13;;;4.07;;
10335;SDS011;5213;53.548;9.930;2022-08-01T07:01:36;7.63;;;4.05;;
10335;SDS011;5213;53.548;9.930;2022-08-01T07:04:03;8.55;;;3.80;;
10335;SDS011;5213;53.548;9.930;2022-08-01T07:06:29;6.93;;;3.65;;
10335;SDS011;5213;53.548;9.930;2022-08-01T07:08:55;5.70;;;3.97;;
10335;SDS011;5213;53.548;9.930;2022-08-01T07:11:21;8.43;;;3.75;;
10335;SDS011;5213;53.548;9.930;2022-08-01T07:13:48;6.65;;;3.65;;
10335;SDS011;5213;53.548;9.930;2022-08-01T07:16:15;8.80;;;4.10;;
10335;SDS011;5213;53.548;9.930;2022-08-01T07:18:41;7.95;;;4.32;;
10335;SDS011;5213;53.548;9.930;2022-08-01T07:21:07;8.90;;;5.10;;
10335;SDS011;5213;53.548;9.930;2022-08-01T07:23:34;9.45;;;5.82;;
10335;SDS011;5213;53.548;9.930;2022-08-01T07:26:02;10.43;;;5.78;;
10335;SDS011;5213;53.548;9.930;2022-08-01T07:28:28;12.80;;;6.30;;
10335;SDS011;5213;53.548;9.930;2022-08-01T07:30:56;13.23;;;6.15;;
10335;SDS011;5213;53.548;9.930;2022-08-01T07:33:23;15.20;;;6.50;;
10335;SDS011;5213;53.548;9.930;2022-08-01T07:35:49;14.98;;;6.22;;
10335;SDS011;5213;53.548;9.930;2022-08-01T07:38:15;11.60;;;5.80;;
10335;SDS011;5213;53.548;9.930;2022-08-01T07:40:42;12.60;;;5.50;;
10335;SDS011;5213;53.548;9.930;2022-08-01T07:43:08;14.95;;;5.68;;
10335;SDS011;5213;53.548;9.930;2022-08-01T07:45:34;13.95;;;5.10;;
10335;SDS011;5213;53.548;9.930;2022-08-01T07:48:06;12.38;;;4.80;;
10335;SDS011;5213;53.548;9.930;2022-08-01T07:50:33;12.43;;;4.40;;
10335;SDS011;5213;53.548;9.930;2022-08-01T07:52:59;12.63;;;5.10;;
10335;SDS011;5213;53.548;9.930;2022-08-01T07:55:25;10.38;;;4.22;;
10335;SDS011;5213;53.548;9.930;2022-08-01T07:57:51;14.07;;;4.47;;
10335;SDS011;5213;53.548;9.930;2022-08-01T08:00:17;10.50;;;4.30;;
10335;SDS011;5213;53.548;9.930;2022-08-01T08:02:44;10.18;;;3.70;;
10335;SDS011;5213;53.548;9.930;2022-08-01T08:05:10;13.70;;;3.88;;
10335;SDS011;5213;53.548;9.930;2022-08-01T08:07:36;8.68;;;3.53;;
10335;SDS011;5213;53.548;9.930;2022-08-01T08:10:03;10.43;;;3.65;;
10335;SDS011;5213;53.548;9.930;2022-08-01T08:12:29;8.20;;;3.05;;
10335;SDS011;5213;53.548;9.930;2022-08-01T08:14:56;10.40;;;3.17;;
10335;SDS011;5213;53.548;9.930;2022-08-01T08:17:24;5.20;;;2.22;;
10335;SDS011;5213;53.548;9.930;2022-08-01T08:19:50;5.40;;;2.30;;
10335;SDS011;5213;53.548;9.930;2022-08-01T08:22:16;6.63;;;2.15;;
10335;SDS011;5213;53.548;9.930;2022-08-01T08:24:43;5.43;;;2.13;;
10335;SDS011;5213;53.548;9.930;2022-08-01T08:27:09;5.32;;;2.17;;
10335;SDS011;5213;53.548;9.930;2022-08-01T08:29:36;7.10;;;2.05;;
10335;SDS011;5213;53.548;9.930;2022-08-01T08:32:02;8.18;;;2.67;;
10335;SDS011;5213;53.548;9.930;2022-08-01T08:34:28;4.95;;;2.00;;
10335;SDS011;5213;53.548;9.930;2022-08-01T08:36:55;4.95;;;2.25;;
10335;SDS011;5213;53.548;9.930;2022-08-01T08:39:21;6.28;;;2.30;;
10335;SDS011;5213;53.548;9.930;2022-08-01T08:41:47;5.78;;;1.95;;
10335;SDS011;5213;53.548;9.930;2022-08-01T08:44:14;8.98;;;2.42;;
10335;SDS011;5213;53.548;9.930;2022-08-01T08:46:42;7.45;;;2.50;;
10335;SDS011;5213;53.548;9.930;2022-08-01T08:49:09;7.28;;;2.38;;
10335;SDS011;5213;53.548;9.930;2022-08-01T08:51:37;8.63;;;2.33;;
10335;SDS011;5213;53.548;9.930;2022-08-01T08:54:04;4.88;;;2.10;;
10335;SDS011;5213;53.548;9.930;2022-08-01T08:56:31;4.57;;;1.85;;
10335;SDS011;5213;53.548;9.930;2022-08-01T08:58:59;5.35;;;1.83;;
10335;SDS011;5213;53.548;9.930;2022-08-01T09:01:25;5.75;;;1.90;;
10335;SDS011;5213;53.548;9.930;2022-08-01T09:03:51;4.35;;;1.83;;
10335;SDS011;5213;53.548;9.930;2022-08-01T09:06:18;5.50;;;2.20;;
10335;SDS011;5213;53.548;9.930;2022-08-01T09:08:45;8.60;;;2.17;;
10335;SDS011;5213;53.548;9.930;2022-08-01T09:11:11;6.63;;;2.42;;
10335;SDS011;5213;53.548;9.930;2022-08-01T09:13:37;11.38;;;2.33;;
10335;SDS011;5213;53.548;9.930;2022-08-01T09:16:04;5.97;;;2.20;;
10335;SDS011;5213;53.548;9.930;2022-08-01T09:18:32;6.90;;;2.40;;
10335;SDS011;5213;53.548;9.930;2022-08-01T09:21:17;10.82;;;2.80;;
10335;SDS011;5213;53.548;9.930;2022-08-01T09:26:13;7.60;;;2.95;;
10335;SDS011;5213;53.548;9.930;2022-08-01T09:28:39;7.85;;;3.03;;
10335;SDS011;5213;53.548;9.930;2022-08-01T09:31:10;9.60;;;3.03;;
10335;SDS011;5213;53.548;9.930;2022-08-01T09:33:49;10.93;;;3.25;;
10335;SDS011;5213;53.548;9.930;2022-08-01T09:36:15;13.25;;;3.38;;
10335;SDS011;5213;53.548;9.930;2022-08-01T09:38:41;13.90;;;3.70;;
10335;SDS011;5213;53.548;9.930;2022-08-01T09:41:07;10.57;;;2.80;;
10335;SDS011;5213;53.548;9.930;2022-08-01T09:43:34;7.75;;;3.35;;
10335;SDS011;5213;53.548;9.930;2022-08-01T09:46:04;10.20;;;3.25;;
10335;SDS011;5213;53.548;9.930;2022-08-01T09:48:30;9.45;;;3.28;;
10335;SDS011;5213;53.548;9.930;2022-08-01T09:50:58;10.60;;;3.53;;
10335;SDS011;5213;53.548;9.930;2022-08-01T09:53:24;12.38;;;3.05;;
10335;SDS011;5213;53.548;9.930;2022-08-01T09:55:50;7.78;;;3.50;;
10335;SDS011;5213;53.548;9.930;2022-08-01T09:58:19;7.07;;;3.40;;
10335;SDS011;5213;53.548;9.930;2022-08-01T10:00:46;11.23;;;3.75;;
10335;SDS011;5213;53.548;9.930;2022-08-01T10:03:25;7.78;;;3.45;;
10335;SDS011;5213;53.548;9.930;2022-08-01T10:05:51;5.75;;;3.10;;
10335;SDS011;5213;53.548;9.930;2022-08-01T10:08:18;7.80;;;3.08;;
10335;SDS011;5213;53.548;9.930;2022-08-01T10:13:31;6.75;;;3.40;;
10335;SDS011;5213;53.548;9.930;2022-08-01T10:15:57;8.52;;;3.20;;
10335;SDS011;5213;53.548;9.930;2022-08-01T10:18:25;8.63;;;2.80;;
10335;SDS011;5213;53.548;9.930;2022-08-01T10:20:51;5.68;;;3.00;;
10335;SDS011;5213;53.548;9.930;2022-08-01T10:23:17;5.13;;;2.90;;
10335;SDS011;5213;53.548;9.930;2022-08-01T10:25:44;7.00;;;2.95;;
10335;SDS011;5213;53.548;9.930;2022-08-01T10:28:14;9.43;;;3.22;;
10335;SDS011;5213;53.548;9.930;2022-08-01T10:30:41;8.15;;;2.50;;
10335;SDS011;5213;53.548;9.930;2022-08-01T10:33:07;7.18;;;2.65;;
10335;SDS011;5213;53.548;9.930;2022-08-01T10:35:34;6.85;;;2.25;;
10335;SDS011;5213;53.548;9.930;2022-08-01T10:38:00;7.20;;;2.20;;
10335;SDS011;5213;53.548;9.930;2022-08-01T10:40:26;7.30;;;2.15;;
10335;SDS011;5213;53.548;9.930;2022-08-01T10:42:53;7.32;;;2.53;;
10335;SDS011;5213;53.548;9.930;2022-08-01T10:45:19;5.55;;;2.13;;
10335;SDS011;5213;53.548;9.930;2022-08-01T10:50:29;9.18;;;2.35;;
10335;SDS011;5213;53.548;9.930;2022-08-01T10:53:30;7.47;;;2.17;;
10335;SDS011;5213;53.548;9.930;2022-08-01T10:55:50;7.40;;;2.08;;
10335;SDS011;5213;53.548;9.930;2022-08-01T10:58:24;8.43;;;1.88;;
10335;SDS011;5213;53.548;9.930;2022-08-01T11:01:25;8.05;;;1.98;;
10335;SDS011;5213;53.548;9.930;2022-08-01T11:09:02;5.93;;;2.20;;
10335;SDS011;5213;53.548;9.930;2022-08-01T11:11:28;6.38;;;2.00;;
10335;SDS011;5213;53.548;9.930;2022-08-01T11:18:52;5.65;;;1.73;;
10335;SDS011;5213;53.548;9.930;2022-08-01T11:21:18;3.60;;;1.92;;
10335;SDS011;5213;53.548;9.930;2022-08-01T11:23:48;4.03;;;1.90;;
10335;SDS011;5213;53.548;9.930;2022-08-01T11:26:15;8.98;;;2.25;;
10335;SDS011;5213;53.548;9.930;2022-08-01T11:28:42;5.20;;;1.58;;
10335;SDS011;5213;53.548;9.930;2022-08-01T11:38:39;5.00;;;1.77;;
10335;SDS011;5213;53.548;9.930;2022-08-01T11:41:22;7.05;;;1.92;;
10335;SDS011;5213;53.548;9.930;2022-08-01T11:49:22;9.35;;;1.98;;
10335;SDS011;5213;53.548;9.930;2022-08-01T11:51:48;5.20;;;1.73;;
10335;SDS011;5213;53.548;9.930;2022-08-01T11:54:15;4.88;;;1.80;;
10335;SDS011;5213;53.548;9.930;2022-08-01T11:56:41;5.60;;;1.88;;
10335;SDS011;5213;53.548;9.930;2022-08-01T11:59:07;8.27;;;2.20;;
10335;SDS011;5213;53.548;9.930;2022-08-01T12:01:33;6.63;;;2.05;;
10335;SDS011;5213;53.548;9.930;2022-08-01T12:04:00;6.28;;;1.63;;
10335;SDS011;5213;53.548;9.930;2022-08-01T12:06:27;8.20;;;1.80;;
10335;SDS011;5213;53.548;9.930;2022-08-01T12:08:53;3.40;;;1.63;;
10335;SDS011;5213;53.548;9.930;2022-08-01T12:11:19;2.97;;;1.48;;
10335;SDS011;5213;53.548;9.930;2022-08-01T12:13:45;4.13;;;1.50;;
10335;SDS011;5213;53.548;9.930;2022-08-01T12:16:12;5.30;;;1.75;;
10335;SDS011;5213;53.548;9.930;2022-08-01T12:18:42;5.88;;;1.80;;
10335;SDS011;5213;53.548;9.930;2022-08-01T12:21:09;4.07;;;1.67;;
10335;SDS011;5213;53.548;9.930;2022-08-01T12:23:35;5.40;;;1.83;;
10335;SDS011;5213;53.548;9.930;2022-08-01T12:26:01;8.98;;;1.80;;
10335;SDS011;5213;53.548;9.930;2022-08-01T12:28:28;5.40;;;2.00;;
10335;SDS011;5213;53.548;9.930;2022-08-01T12:30:55;7.85;;;1.88;;
10335;SDS011;5213;53.548;9.930;2022-08-01T12:33:21;4.22;;;1.70;;
10335;SDS011;5213;53.548;9.930;2022-08-01T12:35:47;7.07;;;1.88;;
10335;SDS011;5213;53.548;9.930;2022-08-01T12:38:14;8.05;;;2.05;;
10335;SDS011;5213;53.548;9.930;2022-08-01T12:40:41;6.65;;;1.98;;
10335;SDS011;5213;53.548;9.930;2022-08-01T12:43:08;5.72;;;1.58;;
10335;SDS011;5213;53.548;9.930;2022-08-01T12:48:01;6.85;;;1.80;;
10335;SDS011;5213;53.548;9.930;2022-08-01T12:50:28;6.03;;;1.90;;
10335;SDS011;5213;53.548;9.930;2022-08-01T12:52:54;7.05;;;1.90;;
10335;SDS011;5213;53.548;9.930;2022-08-01T12:55:25;6.78;;;2.00;;
10335;SDS011;5213;53.548;9.930;2022-08-01T12:58:05;5.60;;;1.67;;
10335;SDS011;5213;53.548;9.930;2022-08-01T13:00:32;6.88;;;2.05;;
10335;SDS011;5213;53.548;9.930;2022-08-01T13:03:02;4.15;;;1.92;;
10335;SDS011;5213;53.548;9.930;2022-08-01T13:05:40;5.95;;;1.70;;
10335;SDS011;5213;53.548;9.930;2022-08-01T13:08:09;6.60;;;1.90;;
10335;SDS011;5213;53.548;9.930;2022-08-01T13:10:35;6.53;;;1.90;;
10335;SDS011;5213;53.548;9.930;2022-08-01T13:13:01;4.47;;;1.48;;
10335;SDS011;5213;53.548;9.930;2022-08-01T13:15:32;5.88;;;1.65;;
10335;SDS011;5213;53.548;9.930;2022-08-01T13:18:00;7.13;;;2.20;;
10335;SDS011;5213;53.548;9.930;2022-08-01T13:20:28;5.43;;;1.65;;
10335;SDS011;5213;53.548;9.930;2022-08-01T13:22:54;4.35;;;1.48;;
10335;SDS011;5213;53.548;9.930;2022-08-01T13:25:20;4.95;;;1.77;;
10335;SDS011;5213;53.548;9.930;2022-08-01T13:27:46;5.75;;;1.75;;
10335;SDS011;5213;53.548;9.930;2022-08-01T13:30:17;4.32;;;1.67;;
10335;SDS011;5213;53.548;9.930;2022-08-01T13:32:43;3.28;;;1.73;;
10335;SDS011;5213;53.548;9.930;2022-08-01T13:35:11;7.38;;;1.70;;
10335;SDS011;5213;53.548;9.930;2022-08-01T13:37:38;6.45;;;1.65;;
10335;SDS011;5213;53.548;9.930;2022-08-01T13:40:04;7.82;;;2.25;;
10335;SDS011;5213;53.548;9.930;2022-08-01T13:42:30;7.95;;;1.98;;
10335;SDS011;5213;53.548;9.930;2022-08-01T13:44:56;4.82;;;1.88;;
10335;SDS011;5213;53.548;9.930;2022-08-01T13:47:23;7.68;;;1.80;;
10335;SDS011;5213;53.548;9.930;2022-08-01T13:49:49;3.45;;;1.58;;
10335;SDS011;5213;53.548;9.930;2022-08-01T13:52:15;6.13;;;1.50;;
10335;SDS011;5213;53.548;9.930;2022-08-01T13:54:41;4.70;;;1.75;;
10335;SDS011;5213;53.548;9.930;2022-08-01T13:57:07;4.80;;;1.60;;
10335;SDS011;5213;53.548;9.930;2022-08-01T13:59:34;5.68;;;1.60;;
10335;SDS011;5213;53.548;9.930;2022-08-01T14:02:00;5.57;;;1.55;;
10335;SDS011;5213;53.548;9.930;2022-08-01T14:04:26;6.25;;;1.60;;
10335;SDS011;5213;53.548;9.930;2022-08-01T14:06:52;6.03;;;1.92;;
10335;SDS011;5213;53.548;9.930;2022-08-01T14:09:18;3.70;;;1.60;;
10335;SDS011;5213;53.548;9.930;2022-08-01T14:11:47;3.22;;;1.40;;
10335;SDS011;5213;53.548;9.930;2022-08-01T14:14:14;2.35;;;1.50;;
10335;SDS011;5213;53.548;9.930;2022-08-01T14:16:40;3.58;;;1.50;;
10335;SDS011;5213;53.548;9.930;2022-08-01T14:19:09;7.05;;;1.58;;
10335;SDS011;5213;53.548;9.930;2022-08-01T14:21:35;4.03;;;1.48;;
10335;SDS011;5213;53.548;9.930;2022-08-01T14:24:01;3.63;;;1.50;;
10335;SDS011;5213;53.548;9.930;2022-08-01T14:26:27;5.50;;;1.50;;
10335;SDS011;5213;53.548;9.930;2022-08-01T14:28:53;3.90;;;1.73;;
10335;SDS011;5213;53.548;9.930;2022-08-01T14:31:19;4.65;;;1.80;;
10335;SDS011;5213;53.548;9.930;2022-08-01T14:33:45;6.82;;;2.13;;
10335;SDS011;5213;53.548;9.930;2022-08-01T14:36:11;4.38;;;1.65;;
10335;SDS011;5213;53.548;9.930;2022-08-01T14:38:37;4.35;;;1.60;;
10335;SDS011;5213;53.548;9.930;2022-08-01T14:41:03;4.97;;;1.83;;
10335;SDS011;5213;53.548;9.930;2022-08-01T14:43:29;3.10;;;1.67;;
10335;SDS011;5213;53.548;9.930;2022-08-01T14:45:57;4.35;;;1.60;;
10335;SDS011;5213;53.548;9.930;2022-08-01T14:48:23;6.55;;;2.00;;
10335;SDS011;5213;53.548;9.930;2022-08-01T14:50:49;4.82;;;1.60;;
10335;SDS011;5213;53.548;9.930;2022-08-01T14:53:15;4.60;;;1.55;;
10335;SDS011;5213;53.548;9.930;2022-08-01T14:55:41;3.78;;;1.65;;
10335;SDS011;5213;53.548;9.930;2022-08-01T14:58:07;4.97;;;1.70;;
10335;SDS011;5213;53.548;9.930;2022-08-01T15:00:33;4.30;;;1.55;;
10335;SDS011;5213;53.548;9.930;2022-08-01T15:03:00;5.60;;;1.88;;
10335;SDS011;5213;53.548;9.930;2022-08-01T15:05:26;5.28;;;1.60;;
10335;SDS011;5213;53.548;9.930;2022-08-01T15:07:53;6.20;;;1.65;;
10335;SDS011;5213;53.548;9.930;2022-08-01T15:10:20;5.15;;;1.80;;
10335;SDS011;5213;53.548;9.930;2022-08-01T15:12:47;3.70;;;1.60;;
10335;SDS011;5213;53.548;9.930;2022-08-01T15:15:13;6.32;;;2.17;;
10335;SDS011;5213;53.548;9.930;2022-08-01T15:17:39;5.13;;;1.52;;
10335;SDS011;5213;53.548;9.930;2022-08-01T15:20:06;4.20;;;1.73;;
10335;SDS011;5213;53.548;9.930;2022-08-01T15:22:32;4.95;;;1.88;;
10335;SDS011;5213;53.548;9.930;2022-08-01T15:24:59;4.57;;;1.58;;
10335;SDS011;5213;53.548;9.930;2022-08-01T15:27:26;6.22;;;2.00;;
10335;SDS011;5213;53.548;9.930;2022-08-01T15:29:53;6.07;;;1.77;;
10335;SDS011;5213;53.548;9.930;2022-08-01T15:32:19;4.07;;;2.03;;
10335;SDS011;5213;53.548;9.930;2022-08-01T15:34:45;5.10;;;2.00;;
10335;SDS011;5213;53.548;9.930;2022-08-01T15:37:11;7.03;;;2.38;;
10335;SDS011;5213;53.548;9.930;2022-08-01T15:39:38;4.13;;;1.90;;
10335;SDS011;5213;53.548;9.930;2022-08-01T15:42:11;5.63;;;1.98;;